createdAt,value
2022-10-05T00:01:48.713Z,11.00
2022-10-05T00:04:22.680Z,11.00
2022-10-05T00:07:09.117Z,11.00
2022-10-05T00:09:35.765Z,11.00
2022-10-05T00:12:22.455Z,11.00
2022-10-05T00:14:51.566Z,11.00
2022-10-05T00:17:24.573Z,11.00
2022-10-05T00:19:52.763Z,11.00
2022-10-05T00:22:33.390Z,11.00
2022-10-05T00:25:01.992Z,10.90
2022-10-05T00:27:36.614Z,10.90
2022-10-05T00:30:12.132Z,10.90
2022-10-05T00:32:39.036Z,10.90
2022-10-05T00:35:06.237Z,11.00
2022-10-05T00:37:32.901Z,10.90
2022-10-05T00:39:59.586Z,10.90
2022-10-05T00:43:00.341Z,10.90
2022-10-05T00:45:36.040Z,10.90
2022-10-05T00:48:17.445Z,10.90
2022-10-05T00:50:50.052Z,10.90
2022-10-05T00:53:42.936Z,10.80
2022-10-05T00:56:29.868Z,10.80
2022-10-05T00:59:24.574Z,10.80
2022-10-05T01:02:02.789Z,10.70
2022-10-05T01:05:05.703Z,10.80
2022-10-05T01:08:01.561Z,10.70
2022-10-05T01:10:38.372Z,10.60
2022-10-05T01:13:23.633Z,10.60
2022-10-05T01:15:58.886Z,10.60
2022-10-05T01:18:40.633Z,10.60
2022-10-05T01:21:22.761Z,10.60
2022-10-05T01:24:19.874Z,10.60
2022-10-05T01:27:04.607Z,10.60
2022-10-05T01:30:03.736Z,10.50
2022-10-05T01:32:49.251Z,10.50
2022-10-05T01:35:43.833Z,10.50
2022-10-05T01:38:44.443Z,10.50
2022-10-05T01:41:29.147Z,10.50
2022-10-05T01:44:37.603Z,10.50
2022-10-05T01:47:17.619Z,10.50
2022-10-05T01:49:44.217Z,10.50
2022-10-05T01:52:13.967Z,10.50
2022-10-05T01:55:02.107Z,10.50
2022-10-05T01:58:00.107Z,10.50
2022-10-05T02:00:28.741Z,10.60
2022-10-05T02:03:30.445Z,10.60
2022-10-05T02:06:09.794Z,10.60
2022-10-05T02:08:36.454Z,10.60
2022-10-05T02:11:08.823Z,10.70
2022-10-05T02:13:48.909Z,10.70
2022-10-05T02:16:24.599Z,10.70
2022-10-05T02:18:59.679Z,10.70
2022-10-05T02:21:27.503Z,10.70
2022-10-05T02:24:00.237Z,10.80
2022-10-05T02:26:27.768Z,10.80
2022-10-05T02:28:58.852Z,10.80
2022-10-05T02:31:40.396Z,10.80
2022-10-05T02:34:20.404Z,10.80
2022-10-05T02:36:50.626Z,10.80
2022-10-05T02:39:47.557Z,10.80
2022-10-05T02:42:28.598Z,10.90
2022-10-05T02:45:26.275Z,10.90
2022-10-05T02:48:22.588Z,10.90
2022-10-05T02:50:58.670Z,10.90
2022-10-05T02:53:48.970Z,10.90
2022-10-05T02:56:40.397Z,10.90
2022-10-05T02:59:31.811Z,10.90
2022-10-05T03:02:17.565Z,11.00
2022-10-05T03:05:08.340Z,11.00
2022-10-05T03:07:48.950Z,10.90
2022-10-05T03:10:43.395Z,11.00
2022-10-05T03:13:26.557Z,11.00
2022-10-05T03:16:18.257Z,11.00
2022-10-05T03:19:03.863Z,11.00
2022-10-05T03:21:42.326Z,11.10
2022-10-05T03:24:36.982Z,11.10
2022-10-05T03:27:23.260Z,11.10
2022-10-05T03:30:05.376Z,11.20
2022-10-05T03:32:40.866Z,11.20
2022-10-05T03:35:27.598Z,11.20
2022-10-05T03:38:18.471Z,11.30
2022-10-05T03:40:53.964Z,11.30
2022-10-05T03:43:52.424Z,11.30
2022-10-05T03:46:32.400Z,11.20
2022-10-05T03:49:02.860Z,11.30
2022-10-05T03:51:32.337Z,11.30
2022-10-05T03:54:09.368Z,11.20
2022-10-05T03:56:45.491Z,11.20
2022-10-05T03:59:22.986Z,11.20
2022-10-05T04:02:21.051Z,11.20
2022-10-05T04:04:56.753Z,11.20
2022-10-05T04:07:56.672Z,11.10
2022-10-05T04:10:28.962Z,11.10
2022-10-05T04:13:05.086Z,11.10
2022-10-05T04:15:47.278Z,11.10
2022-10-05T04:18:26.377Z,11.00
2022-10-05T04:21:00.276Z,11.00
2022-10-05T04:23:56.220Z,11.00
2022-10-05T04:26:29.968Z,11.00
2022-10-05T04:29:22.027Z,11.00
2022-10-05T04:32:25.586Z,11.00
2022-10-05T04:35:03.935Z,11.00
2022-10-05T04:37:53.743Z,10.90
2022-10-05T04:40:51.314Z,11.00
2022-10-05T04:44:00.097Z,11.00
2022-10-05T04:47:05.924Z,11.00
2022-10-05T04:50:07.738Z,11.00
2022-10-05T04:52:37.403Z,11.10
2022-10-05T04:55:04.005Z,11.10
2022-10-05T04:57:51.250Z,11.10
2022-10-05T05:00:48.272Z,11.10
2022-10-05T05:03:34.958Z,11.10
2022-10-05T05:06:19.286Z,11.10
2022-10-05T05:09:10.147Z,11.10
2022-10-05T05:12:07.687Z,11.10
2022-10-05T05:14:51.181Z,11.20
2022-10-05T05:17:45.771Z,11.20
2022-10-05T05:20:31.552Z,11.20
2022-10-05T05:23:12.664Z,11.20
2022-10-05T05:25:46.697Z,11.20
2022-10-05T05:28:35.860Z,11.20
2022-10-05T05:31:37.806Z,11.20
2022-10-05T05:34:22.666Z,11.20
2022-10-05T05:37:14.834Z,11.20
2022-10-05T05:40:03.571Z,11.20
2022-10-05T05:42:48.137Z,11.20
2022-10-05T05:45:40.044Z,11.20
2022-10-05T05:48:23.665Z,11.20
2022-10-05T05:51:31.227Z,11.20
2022-10-05T05:54:23.780Z,11.20
2022-10-05T05:56:58.508Z,11.20
2022-10-05T05:59:33.564Z,11.20
2022-10-05T06:02:09.520Z,11.20
2022-10-05T06:04:41.329Z,11.20
2022-10-05T06:07:16.286Z,11.20
2022-10-05T06:09:54.342Z,11.20
2022-10-05T06:12:29.152Z,11.20
2022-10-05T06:15:03.296Z,11.20
2022-10-05T06:18:04.653Z,11.30
2022-10-05T06:20:56.473Z,11.30
2022-10-05T06:23:36.145Z,11.30
2022-10-05T06:26:15.141Z,11.40
2022-10-05T06:28:41.861Z,11.40
2022-10-05T06:31:29.652Z,11.40
2022-10-05T06:34:19.370Z,11.40
2022-10-05T06:36:50.886Z,11.50
2022-10-05T06:39:48.685Z,11.50
2022-10-05T06:42:27.140Z,11.50
2022-10-05T06:45:01.905Z,11.60
2022-10-05T06:47:47.258Z,11.60
2022-10-05T06:50:36.589Z,11.70
2022-10-05T06:53:31.940Z,11.70
2022-10-05T06:56:25.586Z,11.80
2022-10-05T06:59:15.686Z,11.90
2022-10-05T07:02:24.506Z,11.90
2022-10-05T07:05:33.947Z,12.00
2022-10-05T07:08:07.149Z,12.10
2022-10-05T07:10:45.273Z,12.20
2022-10-05T07:13:47.676Z,12.30
2022-10-05T07:16:35.597Z,12.40
2022-10-05T07:19:21.847Z,12.50
2022-10-05T07:22:18.959Z,12.60
2022-10-05T07:25:13.437Z,12.80
2022-10-05T07:28:04.658Z,13.00
2022-10-05T07:30:43.717Z,13.10
2022-10-05T07:33:33.694Z,13.30
2022-10-05T07:36:27.348Z,13.40
2022-10-05T07:39:08.952Z,13.40
2022-10-05T07:41:47.667Z,13.60
2022-10-05T07:44:34.993Z,13.70
2022-10-05T07:47:09.117Z,13.90
2022-10-05T07:49:47.423Z,14.00
2022-10-05T07:52:38.223Z,14.10
2022-10-05T07:55:20.072Z,14.10
2022-10-05T07:58:18.903Z,14.20
2022-10-05T08:00:56.656Z,14.30
2022-10-05T08:03:45.182Z,14.30
2022-10-05T08:06:28.973Z,14.40
2022-10-05T08:09:04.641Z,14.50
2022-10-05T08:11:42.075Z,14.60
2022-10-05T08:14:20.367Z,14.60
2022-10-05T08:16:49.543Z,14.70
2022-10-05T08:19:26.550Z,14.80
2022-10-05T08:22:05.053Z,14.90
2022-10-05T08:24:54.753Z,14.90
2022-10-05T08:27:50.025Z,15.00
2022-10-05T08:30:16.909Z,15.10
2022-10-05T08:33:06.837Z,15.10
2022-10-05T08:35:39.112Z,15.20
2022-10-05T08:38:16.519Z,15.20
2022-10-05T08:41:01.747Z,15.40
2022-10-05T08:44:09.371Z,15.40
2022-10-05T08:46:51.104Z,15.50
2022-10-05T08:49:39.981Z,15.60
2022-10-05T08:52:29.863Z,15.60
2022-10-05T08:55:22.899Z,15.70
2022-10-05T08:58:37.590Z,15.80
2022-10-05T09:01:04.314Z,15.90
2022-10-05T09:03:38.409Z,15.90
2022-10-05T09:06:28.252Z,16.00
2022-10-05T09:09:06.942Z,16.10
2022-10-05T09:11:57.544Z,16.10
2022-10-05T09:15:01.461Z,16.20
2022-10-05T09:18:00.495Z,16.20
2022-10-05T09:20:55.730Z,16.30
2022-10-05T09:23:42.960Z,16.30
2022-10-05T09:26:42.955Z,16.30
2022-10-05T09:29:50.108Z,16.40
2022-10-05T09:32:39.905Z,16.40
2022-10-05T09:35:52.427Z,16.50
2022-10-05T09:38:56.497Z,16.50
2022-10-05T09:41:47.382Z,16.60
2022-10-05T09:44:33.243Z,16.70
2022-10-05T09:47:22.377Z,16.70
2022-10-05T09:50:22.923Z,16.80
2022-10-05T09:53:19.014Z,16.80
2022-10-05T09:56:05.238Z,16.90
2022-10-05T09:58:50.061Z,17.00
2022-10-05T10:01:32.596Z,17.00
2022-10-05T10:04:08.039Z,17.10
2022-10-05T10:07:05.843Z,17.00
2022-10-05T10:10:00.159Z,17.10
2022-10-05T10:13:08.250Z,17.20
2022-10-05T10:15:57.688Z,17.20
2022-10-05T10:18:53.613Z,17.30
2022-10-05T10:21:57.947Z,17.30
2022-10-05T10:24:47.401Z,17.50
2022-10-05T10:27:38.427Z,17.60
2022-10-05T10:30:31.052Z,17.70
2022-10-05T10:33:15.492Z,17.70
2022-10-05T10:35:55.815Z,17.80
2022-10-05T10:38:40.611Z,17.80
2022-10-05T10:41:31.914Z,17.90
2022-10-05T10:44:38.126Z,18.00
2022-10-05T10:47:11.236Z,18.00
2022-10-05T10:49:56.409Z,18.10
2022-10-05T10:52:40.682Z,18.20
2022-10-05T10:55:35.272Z,18.20
2022-10-05T11:01:05.887Z,18.20
2022-10-05T11:03:46.307Z,18.20
2022-10-05T11:06:56.814Z,18.20
2022-10-05T11:09:30.189Z,18.40
2022-10-05T11:12:30.886Z,18.40
2022-10-05T11:15:28.885Z,18.40
2022-10-05T11:18:10.304Z,18.40
2022-10-05T11:21:04.445Z,18.40
2022-10-05T11:23:42.721Z,18.40
2022-10-05T11:26:48.105Z,18.50
2022-10-05T11:29:53.572Z,18.50
2022-10-05T11:32:27.822Z,18.50
2022-10-05T11:35:31.868Z,18.60
2022-10-05T11:38:07.625Z,18.60
2022-10-05T11:40:56.273Z,18.60
2022-10-05T11:43:41.728Z,18.60
2022-10-05T11:46:32.775Z,18.70
2022-10-05T11:49:15.533Z,18.80
2022-10-05T11:51:52.711Z,18.80
2022-10-05T11:55:10.986Z,18.80
2022-10-05T11:57:53.702Z,18.80
2022-10-05T12:00:22.141Z,18.90
2022-10-05T12:02:53.151Z,18.90
2022-10-05T12:05:26.105Z,18.90
2022-10-05T12:08:06.405Z,18.90
2022-10-05T12:10:56.565Z,18.90
2022-10-05T12:13:54.516Z,18.90
2022-10-05T12:16:28.735Z,19.00
2022-10-05T12:19:12.061Z,19.10
2022-10-05T12:21:51.976Z,19.10
2022-10-05T12:24:38.574Z,19.20
2022-10-05T12:27:18.538Z,19.10
2022-10-05T12:30:13.494Z,19.10
2022-10-05T12:33:00.937Z,19.10
2022-10-05T12:36:05.573Z,19.10
2022-10-05T12:38:45.931Z,19.10
2022-10-05T12:41:22.548Z,19.20
2022-10-05T12:44:04.980Z,19.20
2022-10-05T12:46:48.304Z,19.20
2022-10-05T12:49:37.152Z,19.30
2022-10-05T12:52:06.805Z,19.30
2022-10-05T12:54:58.376Z,19.30
2022-10-05T12:57:55.660Z,19.40
2022-10-05T13:00:23.365Z,19.40
2022-10-05T13:02:57.995Z,19.50
2022-10-05T13:05:30.456Z,19.60
2022-10-05T13:08:12.896Z,19.60
2022-10-05T13:10:55.707Z,19.70
2022-10-05T13:13:43.328Z,19.70
2022-10-05T13:16:19.450Z,19.70
2022-10-05T13:19:11.241Z,19.70
2022-10-05T13:21:49.936Z,19.80
2022-10-05T13:24:29.601Z,19.80
2022-10-05T13:27:22.244Z,19.80
2022-10-05T13:29:59.568Z,19.90
2022-10-05T13:32:29.420Z,19.90
2022-10-05T13:35:30.544Z,19.90
2022-10-05T13:38:06.307Z,19.90
2022-10-05T13:41:05.480Z,20.00
2022-10-05T13:43:57.787Z,20.00
2022-10-05T13:46:38.297Z,20.00
2022-10-05T13:49:20.997Z,20.10
2022-10-05T13:52:17.585Z,20.10
2022-10-05T13:55:15.426Z,20.10
2022-10-05T13:58:08.268Z,20.10
2022-10-05T14:00:52.900Z,20.10
2022-10-05T14:03:35.980Z,20.10
2022-10-05T14:06:11.729Z,20.20
2022-10-05T14:09:26.290Z,20.20
2022-10-05T14:12:05.453Z,20.20
2022-10-05T14:14:42.087Z,20.20
2022-10-05T14:17:36.187Z,20.20
2022-10-05T14:20:19.421Z,20.20
2022-10-05T14:23:08.047Z,20.30
2022-10-05T14:25:53.756Z,20.40
2022-10-05T14:28:29.703Z,20.30
2022-10-05T14:31:27.119Z,20.30
2022-10-05T14:33:53.890Z,20.30
2022-10-05T14:36:40.212Z,20.30
2022-10-05T14:39:13.595Z,20.30
2022-10-05T14:41:48.996Z,20.30
2022-10-05T14:44:16.185Z,20.30
2022-10-05T14:46:54.437Z,20.30
2022-10-05T14:49:24.368Z,20.30
2022-10-05T14:51:51.663Z,20.30
2022-10-05T14:54:53.790Z,20.30
2022-10-05T14:57:25.358Z,20.30
2022-10-05T15:00:33.819Z,20.30
2022-10-05T15:03:09.981Z,20.40
2022-10-05T15:05:45.498Z,20.40
2022-10-05T15:08:12.105Z,20.30
2022-10-05T15:11:03.069Z,20.40
2022-10-05T15:13:34.182Z,20.30
2022-10-05T15:16:11.414Z,20.30
2022-10-05T15:19:03.230Z,20.30
2022-10-05T15:22:03.885Z,20.30
2022-10-05T15:24:43.603Z,20.30
2022-10-05T15:27:29.563Z,20.20
2022-10-05T15:30:12.504Z,20.20
2022-10-05T15:32:52.081Z,20.20
2022-10-05T15:35:40.355Z,20.20
2022-10-05T15:38:20.893Z,20.10
2022-10-05T15:41:09.909Z,20.10
2022-10-05T15:43:45.610Z,20.10
2022-10-05T15:46:46.880Z,20.10
2022-10-05T15:49:19.612Z,20.10
2022-10-05T15:52:17.680Z,20.00
2022-10-05T15:55:06.294Z,20.00
2022-10-05T15:57:48.604Z,19.90
2022-10-05T16:00:19.095Z,19.90
2022-10-05T16:03:05.157Z,19.90
2022-10-05T16:06:03.211Z,19.80
2022-10-05T16:08:54.582Z,19.80
2022-10-05T16:11:45.389Z,19.70
2022-10-05T16:14:30.167Z,19.60
2022-10-05T16:17:21.204Z,19.50
2022-10-05T16:19:53.902Z,19.40
2022-10-05T16:22:51.390Z,19.40
2022-10-05T16:25:23.750Z,19.30
2022-10-05T16:28:15.819Z,19.20
2022-10-05T16:31:08.577Z,19.10
2022-10-05T16:34:06.625Z,19.10
2022-10-05T16:36:49.916Z,19.00
2022-10-05T16:39:32.940Z,18.90
2022-10-05T16:42:18.741Z,18.80
2022-10-05T16:44:48.195Z,18.80
2022-10-05T16:47:47.008Z,18.70
2022-10-05T16:50:23.077Z,18.60
2022-10-05T16:53:05.103Z,18.50
2022-10-05T16:55:38.672Z,18.40
2022-10-05T16:58:16.780Z,18.40
2022-10-05T17:01:08.554Z,18.30
2022-10-05T17:03:55.522Z,18.20
2022-10-05T17:06:56.688Z,18.10
2022-10-05T17:09:42.921Z,18.00
2022-10-05T17:12:24.778Z,17.80
2022-10-05T17:15:29.592Z,17.70
2022-10-05T17:18:16.703Z,17.60
2022-10-05T17:21:00.964Z,17.60
2022-10-05T17:23:55.507Z,17.50
2022-10-05T17:26:41.042Z,17.40
2022-10-05T17:30:11.984Z,17.30
2022-10-05T17:32:59.758Z,17.20
2022-10-05T17:35:55.107Z,17.10
2022-10-05T17:38:40.631Z,17.10
2022-10-05T17:41:28.689Z,17.00
2022-10-05T17:44:16.241Z,16.90
2022-10-05T17:47:05.316Z,16.90
2022-10-05T17:49:38.049Z,16.80
2022-10-05T17:52:40.907Z,16.80
2022-10-05T17:55:30.011Z,16.70
2022-10-05T17:58:00.152Z,16.70
2022-10-05T18:00:33.076Z,16.70
2022-10-05T18:03:00.306Z,16.60
2022-10-05T18:05:29.036Z,16.50
2022-10-05T18:08:16.364Z,16.50
2022-10-05T18:11:35.321Z,16.40
2022-10-05T18:14:20.928Z,16.30
2022-10-05T18:17:03.678Z,16.30
2022-10-05T18:19:32.429Z,16.20
2022-10-05T18:22:15.503Z,16.20
2022-10-05T18:25:07.512Z,16.10
2022-10-05T18:27:47.675Z,16.10
2022-10-05T18:30:25.321Z,16.00
2022-10-05T18:33:00.892Z,16.00
2022-10-05T18:35:39.456Z,16.00
2022-10-05T18:38:13.597Z,15.90
2022-10-05T18:41:16.427Z,15.80
2022-10-05T18:43:58.742Z,15.80
2022-10-05T18:46:25.446Z,15.70
2022-10-05T18:49:11.139Z,15.80
2022-10-05T18:51:54.935Z,15.70
2022-10-05T18:54:31.753Z,15.70
2022-10-05T18:57:02.300Z,15.60
2022-10-05T18:59:39.149Z,15.60
2022-10-05T19:02:24.088Z,15.60
2022-10-05T19:05:29.360Z,15.50
2022-10-05T19:08:20.224Z,15.50
2022-10-05T19:10:54.484Z,15.50
2022-10-05T19:13:59.000Z,15.50
2022-10-05T19:16:52.754Z,15.50
2022-10-05T19:19:44.044Z,15.40
2022-10-05T19:22:38.343Z,15.30
2022-10-05T19:25:25.092Z,15.30
2022-10-05T19:28:07.021Z,15.30
2022-10-05T19:30:52.537Z,15.30
2022-10-05T19:33:52.139Z,15.30
2022-10-05T19:36:31.972Z,15.30
2022-10-05T19:39:21.394Z,15.30
2022-10-05T19:42:09.709Z,15.20
2022-10-05T19:44:52.233Z,15.20
2022-10-05T19:47:50.348Z,15.20
2022-10-05T19:50:23.228Z,15.10
2022-10-05T19:52:52.212Z,15.10
2022-10-05T19:55:26.181Z,15.10
2022-10-05T19:58:01.371Z,15.10
2022-10-05T20:00:34.499Z,15.00
2022-10-05T20:03:18.386Z,15.00
2022-10-05T20:05:45.554Z,15.00
2022-10-05T20:08:17.476Z,15.00
2022-10-05T20:10:45.385Z,15.00
2022-10-05T20:13:20.763Z,15.00
2022-10-05T20:16:37.532Z,14.90
2022-10-05T20:19:44.007Z,15.00
2022-10-05T20:22:25.891Z,14.90
2022-10-05T20:24:55.445Z,14.90
2022-10-05T20:27:37.295Z,14.90
2022-10-05T20:30:05.400Z,14.90
2022-10-05T20:32:32.225Z,14.90
2022-10-05T20:34:58.866Z,14.90
2022-10-05T20:37:25.652Z,15.00
2022-10-05T20:39:52.424Z,15.00
2022-10-05T20:42:20.489Z,15.10
2022-10-05T20:44:47.368Z,15.10
2022-10-05T20:47:14.574Z,15.10
2022-10-05T20:49:41.433Z,15.10
2022-10-05T20:52:10.433Z,15.10
2022-10-05T20:54:38.519Z,15.10
2022-10-05T20:57:06.507Z,15.10
2022-10-05T20:59:34.421Z,15.10
2022-10-05T21:02:01.686Z,15.10
2022-10-05T21:04:40.794Z,15.10
2022-10-05T21:07:08.394Z,15.20
2022-10-05T21:09:37.903Z,15.20
2022-10-05T21:12:04.816Z,15.20
2022-10-05T21:14:34.210Z,15.20
2022-10-05T21:17:01.896Z,15.20
2022-10-05T21:19:29.424Z,15.10
2022-10-05T21:21:59.196Z,15.10
2022-10-05T21:24:26.185Z,15.00
2022-10-05T21:26:57.545Z,15.10
2022-10-05T21:29:24.320Z,15.10
2022-10-05T21:31:51.251Z,15.10
2022-10-05T21:34:18.200Z,15.20
2022-10-05T21:36:45.053Z,15.20
2022-10-05T21:39:11.699Z,15.20
2022-10-05T21:41:38.485Z,15.20
2022-10-05T21:44:06.694Z,15.20
2022-10-05T21:46:36.281Z,15.20
2022-10-05T21:49:03.094Z,15.20
2022-10-05T21:51:29.845Z,15.20
2022-10-05T21:54:03.593Z,15.20
2022-10-05T21:56:36.862Z,15.20
2022-10-05T21:59:06.253Z,15.10
2022-10-05T22:01:36.000Z,15.10
2022-10-05T22:04:08.724Z,15.10
2022-10-05T22:06:36.049Z,15.10
2022-10-05T22:09:04.173Z,15.10
2022-10-05T22:11:31.621Z,15.00
2022-10-05T22:14:04.169Z,15.00
2022-10-05T22:16:38.169Z,15.10
2022-10-05T22:19:07.262Z,15.00
2022-10-05T22:21:41.399Z,14.90
2022-10-05T22:24:09.928Z,14.90
2022-10-05T22:26:36.701Z,14.90
2022-10-05T22:29:03.991Z,14.90
2022-10-05T22:31:30.755Z,14.80
2022-10-05T22:33:57.503Z,14.80
2022-10-05T22:36:24.523Z,14.80
2022-10-05T22:38:52.372Z,14.70
2022-10-05T22:41:19.434Z,14.70
2022-10-05T22:43:49.950Z,14.80
2022-10-05T22:46:17.670Z,14.70
2022-10-05T22:48:44.430Z,14.70
2022-10-05T22:51:11.090Z,14.70
2022-10-05T22:53:37.908Z,14.70
2022-10-05T22:56:13.503Z,14.60
2022-10-05T22:58:41.394Z,14.60
2022-10-05T23:01:10.743Z,14.60
2022-10-05T23:03:37.482Z,14.60
2022-10-05T23:06:07.048Z,14.50
2022-10-05T23:08:35.814Z,14.50
2022-10-05T23:11:07.627Z,14.40
2022-10-05T23:13:34.561Z,14.40
2022-10-05T23:16:12.790Z,14.40
2022-10-05T23:18:40.035Z,14.40
2022-10-05T23:21:08.549Z,14.40
2022-10-05T23:23:40.421Z,14.40
2022-10-05T23:26:09.854Z,14.40
2022-10-05T23:28:38.351Z,14.40
2022-10-05T23:31:07.841Z,14.30
2022-10-05T23:33:35.539Z,14.30
2022-10-05T23:36:05.849Z,14.30
2022-10-05T23:38:32.985Z,14.30
2022-10-05T23:40:59.869Z,14.20
2022-10-05T23:43:27.512Z,14.20
2022-10-05T23:45:54.986Z,14.10
2022-10-05T23:48:22.400Z,14.10
2022-10-05T23:50:50.116Z,14.10
2022-10-05T23:53:18.148Z,14.10
2022-10-05T23:55:45.392Z,14.10
2022-10-05T23:58:12.527Z,14.10
